createdAt,value
2022-11-18T00:01:07.421Z,13.73
2022-11-18T00:03:34.281Z,11.50
2022-11-18T00:06:01.107Z,12.50
2022-11-18T00:08:28.046Z,14.80
2022-11-18T00:10:54.984Z,12.60
2022-11-18T00:13:42.002Z,12.43
2022-11-18T00:16:10.162Z,21.60
2022-11-18T00:18:37.365Z,13.87
2022-11-18T00:21:08.407Z,14.87
2022-11-18T00:23:35.643Z,17.03
2022-11-18T00:26:03.472Z,14.27
2022-11-18T00:28:30.844Z,13.87
2022-11-18T00:31:01.194Z,14.03
2022-11-18T00:33:28.122Z,14.70
2022-11-18T00:35:55.472Z,16.40
2022-11-18T00:38:22.272Z,11.93
2022-11-18T00:40:49.266Z,13.90
2022-11-18T00:43:16.195Z,15.30
2022-11-18T00:45:43.783Z,13.47
2022-11-18T00:48:10.600Z,16.07
2022-11-18T00:50:37.418Z,12.67
2022-11-18T00:53:04.276Z,13.37
2022-11-18T00:55:31.984Z,13.50
2022-11-18T00:57:58.916Z,14.57
2022-11-18T01:00:25.709Z,12.47
2022-11-18T01:02:52.803Z,12.87
2022-11-18T01:05:19.727Z,12.47
2022-11-18T01:07:46.601Z,12.13
2022-11-18T01:10:13.505Z,13.80
2022-11-18T01:12:58.640Z,13.27
2022-11-18T01:15:25.528Z,16.90
2022-11-18T01:17:52.293Z,20.07
2022-11-18T01:20:19.142Z,22.53
2022-11-18T01:22:45.970Z,14.30
2022-11-18T01:25:13.495Z,13.73
2022-11-18T01:27:41.011Z,15.93
2022-11-18T01:30:08.084Z,16.33
2022-11-18T01:32:35.064Z,14.83
2022-11-18T01:35:01.830Z,16.63
2022-11-18T01:37:28.687Z,15.47
2022-11-18T01:39:55.470Z,12.77
2022-11-18T01:42:22.442Z,12.07
2022-11-18T01:45:10.217Z,17.63
2022-11-18T01:47:39.314Z,16.50
2022-11-18T01:50:06.902Z,21.87
2022-11-18T01:52:34.433Z,14.57
2022-11-18T01:55:04.470Z,15.03
2022-11-18T01:57:32.588Z,14.03
2022-11-18T02:00:01.623Z,13.70
2022-11-18T02:02:32.983Z,15.07
2022-11-18T02:05:01.011Z,14.93
2022-11-18T02:07:28.031Z,15.83
2022-11-18T02:09:55.545Z,15.33
2022-11-18T02:12:23.486Z,18.27
2022-11-18T02:14:51.102Z,19.07
2022-11-18T02:17:17.930Z,20.60
2022-11-18T02:19:47.748Z,16.67
2022-11-18T02:22:23.597Z,14.23
2022-11-18T02:25:10.636Z,15.80
2022-11-18T02:27:48.778Z,16.70
2022-11-18T02:30:17.095Z,16.70
2022-11-18T02:33:07.176Z,15.17
2022-11-18T02:35:40.047Z,15.20
2022-11-18T02:38:12.447Z,15.30
2022-11-18T02:40:42.043Z,13.73
2022-11-18T02:43:20.400Z,14.60
2022-11-18T02:45:49.831Z,16.83
2022-11-18T02:48:17.580Z,15.70
2022-11-18T02:50:45.682Z,18.23
2022-11-18T02:53:14.074Z,17.43
2022-11-18T02:55:41.757Z,15.43
2022-11-18T02:58:09.047Z,15.00
2022-11-18T03:00:36.321Z,17.67
2022-11-18T03:03:23.129Z,16.57
2022-11-18T03:05:53.393Z,16.07
2022-11-18T03:08:23.677Z,13.57
2022-11-18T03:10:54.534Z,15.87
2022-11-18T03:13:26.817Z,16.30
2022-11-18T03:16:05.376Z,16.20
2022-11-18T03:18:55.352Z,17.73
2022-11-18T03:21:32.145Z,15.83
2022-11-18T03:24:01.864Z,16.57
2022-11-18T03:26:37.736Z,16.10
2022-11-18T03:29:04.596Z,16.03
2022-11-18T03:31:36.653Z,16.03
2022-11-18T03:34:10.029Z,17.87
2022-11-18T03:36:40.839Z,21.97
2022-11-18T03:39:09.115Z,21.00
2022-11-18T03:41:38.947Z,20.73
2022-11-18T03:44:08.411Z,18.83
2022-11-18T03:46:38.542Z,22.00
2022-11-18T03:49:07.692Z,28.93
2022-11-18T03:51:41.958Z,25.27
2022-11-18T03:54:31.894Z,18.23
2022-11-18T03:57:01.288Z,15.73
2022-11-18T03:59:32.224Z,16.17
2022-11-18T04:02:15.372Z,19.03
2022-11-18T04:04:44.002Z,20.33
2022-11-18T04:07:26.845Z,17.73
2022-11-18T04:09:58.105Z,20.20
2022-11-18T04:12:27.227Z,18.63
2022-11-18T04:14:55.637Z,18.20
2022-11-18T04:17:23.800Z,15.87
2022-11-18T04:19:50.791Z,16.43
2022-11-18T04:22:19.383Z,16.93
2022-11-18T04:24:46.190Z,14.70
2022-11-18T04:27:13.257Z,18.87
2022-11-18T04:29:40.147Z,15.73
2022-11-18T04:32:07.060Z,14.20
2022-11-18T04:34:33.860Z,14.90
2022-11-18T04:37:00.797Z,16.23
2022-11-18T04:39:28.033Z,13.73
2022-11-18T04:41:57.586Z,14.20
2022-11-18T04:44:25.972Z,12.93
2022-11-18T04:46:53.148Z,17.07
2022-11-18T04:49:20.180Z,12.93
2022-11-18T04:51:47.455Z,15.57
2022-11-18T04:54:14.752Z,14.43
2022-11-18T04:56:48.456Z,13.80
2022-11-18T04:59:18.094Z,14.27
2022-11-18T05:01:45.395Z,15.47
2022-11-18T05:04:13.405Z,17.17
2022-11-18T05:06:40.216Z,16.03
2022-11-18T05:09:07.175Z,20.00
2022-11-18T05:11:53.102Z,15.27
2022-11-18T05:14:20.011Z,15.87
2022-11-18T05:16:46.827Z,16.33
2022-11-18T05:19:13.725Z,15.97
2022-11-18T05:21:40.660Z,18.67
2022-11-18T05:24:07.610Z,16.73
2022-11-18T05:26:34.604Z,22.27
2022-11-18T05:29:01.389Z,16.70
2022-11-18T05:31:28.324Z,14.30
2022-11-18T05:33:55.534Z,14.33
2022-11-18T05:36:22.499Z,14.23
2022-11-18T05:38:49.680Z,14.87
2022-11-18T05:41:35.546Z,17.77
2022-11-18T05:44:03.292Z,19.30
2022-11-18T05:46:30.923Z,15.20
2022-11-18T05:48:57.692Z,17.70
2022-11-18T05:51:24.834Z,19.43
2022-11-18T05:53:52.430Z,28.03
2022-11-18T05:56:21.309Z,15.80
2022-11-18T05:58:48.477Z,16.33
2022-11-18T06:01:17.747Z,17.33
2022-11-18T06:03:44.790Z,17.00
2022-11-18T06:06:13.887Z,19.77
2022-11-18T06:08:43.205Z,15.67
2022-11-18T06:11:12.624Z,15.87
2022-11-18T06:13:42.276Z,14.57
2022-11-18T06:16:09.144Z,17.57
2022-11-18T06:18:36.245Z,15.43
2022-11-18T06:21:04.566Z,17.13
2022-11-18T06:23:34.177Z,17.73
2022-11-18T06:26:01.402Z,14.37
2022-11-18T06:28:29.908Z,15.93
2022-11-18T06:30:56.797Z,16.33
2022-11-18T06:33:23.563Z,15.53
2022-11-18T06:35:50.407Z,12.73
2022-11-18T06:38:17.189Z,13.67
2022-11-18T06:40:44.968Z,14.73
2022-11-18T06:43:31.182Z,16.37
2022-11-18T06:46:20.359Z,17.47
2022-11-18T06:48:47.579Z,24.73
2022-11-18T06:51:14.609Z,22.63
2022-11-18T06:53:41.445Z,19.97
2022-11-18T06:56:09.568Z,18.43
2022-11-18T06:58:36.724Z,20.40
2022-11-18T07:01:30.038Z,20.13
2022-11-18T07:03:58.237Z,24.77
2022-11-18T07:06:26.306Z,20.03
2022-11-18T07:08:53.226Z,20.97
2022-11-18T07:11:21.280Z,17.67
2022-11-18T07:13:48.461Z,17.67
2022-11-18T07:16:16.464Z,19.17
2022-11-18T07:18:44.092Z,23.53
2022-11-18T07:21:12.474Z,19.97
2022-11-18T07:23:39.658Z,21.67
2022-11-18T07:26:06.915Z,22.33
2022-11-18T07:28:34.058Z,21.47
2022-11-18T07:31:08.465Z,21.13
2022-11-18T07:33:36.089Z,24.57
2022-11-18T07:36:07.550Z,22.60
2022-11-18T07:38:34.425Z,24.00
2022-11-18T07:41:05.178Z,22.27
2022-11-18T07:43:32.780Z,18.90
2022-11-18T07:45:59.980Z,20.73
2022-11-18T07:48:26.810Z,22.77
2022-11-18T07:50:54.162Z,20.83
2022-11-18T07:53:21.577Z,17.80
2022-11-18T07:55:48.463Z,22.80
2022-11-18T07:58:15.260Z,17.80
2022-11-18T08:00:42.243Z,21.87
2022-11-18T08:03:12.457Z,22.93
2022-11-18T08:05:41.446Z,21.23
2022-11-18T08:08:08.756Z,27.63
2022-11-18T08:10:35.721Z,20.37
2022-11-18T08:13:02.540Z,23.53
2022-11-18T08:15:29.466Z,20.03
2022-11-18T08:17:56.243Z,21.40
2022-11-18T08:20:27.379Z,23.57
2022-11-18T08:22:54.229Z,24.27
2022-11-18T08:25:21.025Z,20.27
2022-11-18T08:27:47.961Z,18.23
2022-11-18T08:30:14.771Z,23.37
2022-11-18T08:32:41.692Z,19.33
2022-11-18T08:35:11.255Z,21.13
2022-11-18T08:37:38.420Z,20.73
2022-11-18T08:40:05.570Z,23.10
2022-11-18T08:42:34.442Z,21.07
2022-11-18T08:45:01.679Z,21.73
2022-11-18T08:47:28.472Z,18.67
2022-11-18T08:49:55.298Z,19.83
2022-11-18T08:52:22.458Z,19.30
2022-11-18T08:54:49.330Z,20.07
2022-11-18T08:57:16.103Z,23.40
2022-11-18T08:59:43.045Z,19.17
2022-11-18T09:02:16.620Z,21.33
2022-11-18T09:04:43.544Z,18.30
2022-11-18T09:07:10.486Z,18.30
2022-11-18T09:09:37.474Z,19.57
2022-11-18T09:12:04.376Z,19.10
2022-11-18T09:17:18.650Z,24.47
2022-11-18T09:19:47.627Z,19.10
2022-11-18T09:22:15.247Z,19.47
2022-11-18T09:24:43.639Z,19.17
2022-11-18T09:27:16.367Z,20.77
2022-11-18T09:29:44.336Z,21.40
2022-11-18T09:32:11.127Z,21.53
2022-11-18T09:34:37.947Z,18.70
2022-11-18T09:37:06.735Z,23.83
2022-11-18T09:39:37.410Z,20.70
2022-11-18T09:42:22.992Z,23.50
2022-11-18T09:45:04.488Z,19.57
2022-11-18T09:47:34.313Z,19.13
2022-11-18T09:50:26.632Z,22.47
2022-11-18T09:53:04.581Z,19.40
2022-11-18T09:55:32.007Z,19.37
2022-11-18T09:57:59.609Z,20.97
2022-11-18T10:00:27.567Z,20.23
2022-11-18T10:03:06.520Z,17.73
2022-11-18T10:05:45.536Z,25.07
2022-11-18T10:08:27.468Z,22.63
2022-11-18T10:10:54.585Z,17.63
2022-11-18T10:13:32.718Z,19.83
2022-11-18T10:16:23.297Z,17.20
2022-11-18T10:19:01.767Z,19.73
2022-11-18T10:21:47.632Z,21.20
2022-11-18T10:24:14.666Z,20.43
2022-11-18T10:26:42.074Z,20.30
2022-11-18T10:29:11.076Z,17.73
2022-11-18T10:31:52.242Z,16.33
2022-11-18T10:34:20.153Z,17.23
2022-11-18T10:37:05.683Z,20.90
2022-11-18T10:39:32.885Z,20.27
2022-11-18T10:42:04.484Z,22.27
2022-11-18T10:44:31.480Z,19.20
2022-11-18T10:47:17.082Z,22.17
2022-11-18T10:49:44.389Z,24.30
2022-11-18T10:52:14.893Z,21.47
2022-11-18T10:54:42.503Z,50.50
2022-11-18T10:57:15.583Z,31.47
2022-11-18T11:00:02.961Z,23.90
2022-11-18T11:02:31.700Z,35.50
2022-11-18T11:04:59.579Z,26.73
2022-11-18T11:07:28.044Z,21.00
2022-11-18T11:10:02.541Z,20.63
2022-11-18T11:12:31.587Z,24.17
2022-11-18T11:15:00.808Z,23.57
2022-11-18T11:17:30.006Z,21.93
2022-11-18T11:19:57.095Z,24.50
2022-11-18T11:22:24.125Z,22.27
2022-11-18T11:24:51.010Z,19.67
2022-11-18T11:30:16.734Z,20.60
2022-11-18T11:33:14.091Z,19.37
2022-11-18T11:35:59.622Z,22.87
2022-11-18T11:38:26.522Z,21.63
2022-11-18T11:41:06.189Z,31.70
2022-11-18T11:43:39.765Z,22.97
2022-11-18T11:46:12.473Z,24.13
2022-11-18T11:48:48.485Z,25.37
2022-11-18T11:51:33.743Z,22.77
2022-11-18T11:54:15.968Z,24.77
2022-11-18T11:56:55.522Z,25.63
2022-11-18T11:59:31.013Z,31.20
2022-11-18T12:01:59.824Z,33.97
2022-11-18T12:04:39.021Z,25.90
2022-11-18T12:07:07.252Z,25.60
2022-11-18T12:09:34.150Z,28.77
2022-11-18T12:12:26.764Z,33.00
2022-11-18T12:14:56.867Z,30.17
2022-11-18T12:17:28.140Z,29.33
2022-11-18T12:19:54.986Z,35.30
2022-11-18T12:22:22.043Z,29.23
2022-11-18T12:24:48.910Z,27.00
2022-11-18T12:27:35.669Z,30.10
2022-11-18T12:30:04.047Z,33.53
2022-11-18T12:32:43.806Z,36.87
2022-11-18T12:35:10.708Z,35.13
2022-11-18T12:37:57.747Z,44.63
2022-11-18T12:40:32.530Z,30.73
2022-11-18T12:43:19.084Z,31.93
2022-11-18T12:45:46.159Z,34.00
2022-11-18T12:48:28.463Z,34.23
2022-11-18T12:51:15.511Z,37.60
2022-11-18T12:53:43.780Z,36.27
2022-11-18T12:56:30.825Z,29.07
2022-11-18T12:58:59.034Z,32.50
2022-11-18T13:01:27.177Z,30.90
2022-11-18T13:04:06.270Z,31.00
2022-11-18T13:06:34.286Z,30.77
2022-11-18T13:09:03.358Z,32.07
2022-11-18T13:11:49.922Z,29.80
2022-11-18T13:14:35.816Z,32.10
2022-11-18T13:17:21.270Z,27.37
2022-11-18T13:19:56.213Z,30.97
2022-11-18T13:22:42.209Z,31.53
2022-11-18T13:25:22.597Z,34.53
2022-11-18T13:27:52.576Z,31.60
2022-11-18T13:30:19.427Z,30.13
2022-11-18T13:32:47.217Z,34.60
2022-11-18T13:35:18.790Z,31.33
2022-11-18T13:37:53.810Z,27.90
2022-11-18T13:40:22.017Z,33.77
2022-11-18T13:42:48.881Z,28.20
2022-11-18T13:45:15.935Z,33.93
2022-11-18T13:47:42.827Z,32.10
2022-11-18T13:50:36.388Z,31.63
2022-11-18T13:53:19.168Z,35.00
2022-11-18T13:55:48.445Z,35.20
2022-11-18T13:58:18.317Z,32.13
2022-11-18T14:00:55.183Z,34.10
2022-11-18T14:03:27.724Z,30.53
2022-11-18T14:05:55.133Z,31.80
2022-11-18T14:08:39.097Z,29.40
2022-11-18T14:11:07.105Z,46.10
2022-11-18T14:13:35.681Z,33.47
2022-11-18T14:16:22.851Z,37.57
2022-11-18T14:18:51.863Z,34.23
2022-11-18T14:21:31.899Z,27.87
2022-11-18T14:23:59.299Z,29.90
2022-11-18T14:26:30.921Z,28.63
2022-11-18T14:28:58.850Z,27.00
2022-11-18T14:31:30.151Z,25.13
2022-11-18T14:34:16.385Z,24.13
2022-11-18T14:36:43.699Z,28.77
2022-11-18T14:39:26.404Z,24.00
2022-11-18T14:41:54.362Z,28.67
2022-11-18T14:44:22.229Z,31.47
2022-11-18T14:46:53.750Z,27.37
2022-11-18T14:49:23.010Z,26.07
2022-11-18T14:51:51.301Z,25.97
2022-11-18T14:54:25.493Z,23.80
2022-11-18T14:56:54.619Z,23.43
2022-11-18T14:59:21.561Z,28.53
2022-11-18T15:01:48.629Z,24.70
2022-11-18T15:04:17.514Z,26.27
2022-11-18T15:06:44.649Z,24.00
2022-11-18T15:09:12.129Z,28.00
2022-11-18T15:11:38.980Z,22.90
2022-11-18T15:14:05.836Z,22.87
2022-11-18T15:16:33.125Z,22.00
2022-11-18T15:19:01.260Z,18.10
2022-11-18T15:21:28.245Z,21.30
2022-11-18T15:23:55.103Z,20.93
2022-11-18T15:26:29.479Z,22.20
2022-11-18T15:28:57.320Z,22.37
2022-11-18T15:31:24.741Z,17.73
2022-11-18T15:33:51.828Z,16.27
2022-11-18T15:36:19.665Z,17.93
2022-11-18T15:38:46.670Z,17.07
2022-11-18T15:41:16.617Z,17.50
2022-11-18T15:43:43.927Z,15.73
2022-11-18T15:46:10.779Z,15.67
2022-11-18T15:48:37.749Z,15.27
2022-11-18T15:51:10.464Z,18.63
2022-11-18T15:53:39.272Z,18.07
2022-11-18T15:56:24.352Z,14.27
2022-11-18T15:58:58.628Z,16.13
2022-11-18T16:01:26.479Z,15.40
2022-11-18T16:03:53.709Z,14.70
2022-11-18T16:06:20.599Z,15.67
2022-11-18T16:08:47.480Z,13.63
2022-11-18T16:11:33.822Z,13.90
2022-11-18T16:14:02.194Z,16.87
2022-11-18T16:16:30.314Z,16.83
2022-11-18T16:18:58.457Z,14.60
2022-11-18T16:21:25.835Z,12.30
2022-11-18T16:23:56.504Z,16.30
2022-11-18T16:26:23.343Z,12.77
2022-11-18T16:28:50.344Z,12.77
2022-11-18T16:31:35.581Z,13.53
2022-11-18T16:34:09.314Z,14.80
2022-11-18T16:36:36.928Z,13.67
2022-11-18T16:39:06.189Z,9.77
2022-11-18T16:41:33.306Z,15.70
2022-11-18T16:44:00.659Z,13.57
2022-11-18T16:46:28.275Z,15.10
2022-11-18T16:48:55.943Z,19.17
2022-11-18T16:51:27.264Z,22.13
2022-11-18T16:53:55.031Z,16.93
2022-11-18T16:56:22.632Z,17.50
2022-11-18T16:58:49.492Z,20.00
2022-11-18T17:01:20.889Z,14.40
2022-11-18T17:03:52.127Z,15.13
2022-11-18T17:06:19.429Z,15.57
2022-11-18T17:08:46.313Z,15.10
2022-11-18T17:11:13.198Z,16.70
2022-11-18T17:13:41.221Z,16.43
2022-11-18T17:16:08.994Z,21.70
2022-11-18T17:18:36.303Z,18.40
2022-11-18T17:21:22.146Z,10.13
2022-11-18T17:23:49.392Z,11.10
2022-11-18T17:26:18.295Z,12.63
2022-11-18T17:28:45.299Z,19.80
2022-11-18T17:31:13.389Z,17.03
2022-11-18T17:33:40.599Z,16.20
2022-11-18T17:36:08.362Z,24.77
2022-11-18T17:38:36.408Z,18.33
2022-11-18T17:41:03.433Z,21.23
2022-11-18T17:43:30.271Z,18.47
2022-11-18T17:45:58.069Z,37.23
2022-11-18T17:48:25.657Z,20.03
2022-11-18T17:50:52.713Z,22.57
2022-11-18T17:53:19.700Z,18.17
2022-11-18T17:55:47.171Z,20.50
2022-11-18T17:58:14.044Z,19.63
2022-11-18T18:00:40.904Z,18.23
2022-11-18T18:03:07.788Z,16.60
2022-11-18T18:05:34.587Z,15.33
2022-11-18T18:08:01.604Z,15.93
2022-11-18T18:10:28.373Z,16.57
2022-11-18T18:13:14.024Z,17.07
2022-11-18T18:15:40.817Z,17.60
2022-11-18T18:18:07.690Z,16.33
2022-11-18T18:20:34.773Z,25.13
2022-11-18T18:23:01.685Z,18.87
2022-11-18T18:25:28.560Z,18.60
2022-11-18T18:27:55.413Z,23.27
2022-11-18T18:30:22.172Z,19.93
2022-11-18T18:32:52.425Z,19.33
2022-11-18T18:35:19.685Z,16.83
2022-11-18T18:37:46.484Z,24.60
2022-11-18T18:40:14.012Z,29.50
2022-11-18T18:42:44.552Z,27.07
2022-11-18T18:45:30.051Z,22.93
2022-11-18T18:47:56.832Z,27.10
2022-11-18T18:50:29.319Z,18.43
2022-11-18T18:52:56.619Z,20.27
2022-11-18T18:55:23.545Z,21.27
2022-11-18T18:57:50.306Z,22.57
2022-11-18T19:00:17.581Z,24.30
2022-11-18T19:02:44.409Z,30.93
2022-11-18T19:05:11.192Z,24.90
2022-11-18T19:07:38.337Z,28.77
2022-11-18T19:10:07.334Z,29.57
2022-11-18T19:12:43.221Z,34.63
2022-11-18T19:15:14.061Z,35.87
2022-11-18T19:17:41.097Z,31.10
2022-11-18T19:20:26.887Z,31.07
2022-11-18T19:22:53.773Z,28.00
2022-11-18T19:25:21.055Z,31.57
2022-11-18T19:27:48.206Z,26.10
2022-11-18T19:30:15.025Z,27.57
2022-11-18T19:32:41.969Z,27.53
2022-11-18T19:35:09.563Z,26.93
2022-11-18T19:37:36.591Z,23.27
2022-11-18T19:40:08.879Z,27.80
2022-11-18T19:42:37.933Z,25.23
2022-11-18T19:45:05.119Z,28.20
2022-11-18T19:47:32.433Z,33.07
2022-11-18T19:49:59.423Z,28.00
2022-11-18T19:52:26.317Z,30.77
2022-11-18T19:54:53.179Z,26.07
2022-11-18T19:57:20.143Z,27.13
2022-11-18T19:59:46.968Z,29.57
2022-11-18T20:02:13.800Z,24.57
2022-11-18T20:04:41.042Z,25.83
2022-11-18T20:07:07.997Z,27.33
2022-11-18T20:09:34.768Z,28.13
2022-11-18T20:12:01.689Z,26.80
2022-11-18T20:14:28.629Z,26.53
2022-11-18T20:16:55.431Z,26.63
2022-11-18T20:19:22.765Z,26.57
2022-11-18T20:21:49.819Z,29.43
2022-11-18T20:24:17.613Z,23.53
2022-11-18T20:26:45.246Z,23.77
2022-11-18T20:29:12.330Z,25.90
2022-11-18T20:31:39.217Z,22.50
2022-11-18T20:34:06.465Z,30.90
2022-11-18T20:36:35.754Z,22.27
2022-11-18T20:39:07.220Z,23.13
2022-11-18T20:41:34.177Z,24.63
2022-11-18T20:44:01.110Z,27.80
2022-11-18T20:46:28.152Z,30.17
2022-11-18T20:48:55.004Z,31.87
2022-11-18T20:51:26.051Z,49.03
2022-11-18T20:53:53.891Z,48.93
2022-11-18T20:56:24.409Z,36.40
2022-11-18T20:58:51.366Z,31.07
2022-11-18T21:01:19.764Z,27.57
2022-11-18T21:03:52.808Z,30.93
2022-11-18T21:06:20.386Z,30.30
2022-11-18T21:08:47.229Z,28.83
2022-11-18T21:11:14.406Z,33.80
2022-11-18T21:14:00.230Z,30.47
2022-11-18T21:16:27.657Z,27.33
2022-11-18T21:18:54.521Z,29.60
2022-11-18T21:21:40.270Z,36.37
2022-11-18T21:24:07.501Z,35.70
2022-11-18T21:26:35.219Z,37.97
2022-11-18T21:29:03.767Z,34.43
2022-11-18T21:31:32.165Z,32.57
2022-11-18T21:33:59.445Z,32.20
2022-11-18T21:36:27.156Z,34.60
2022-11-18T21:38:55.080Z,35.10
2022-11-18T21:41:22.276Z,33.83
2022-11-18T21:44:06.334Z,31.70
2022-11-18T21:46:37.443Z,39.53
2022-11-18T21:49:05.115Z,31.77
2022-11-18T21:51:32.401Z,30.00
2022-11-18T21:53:59.843Z,26.47
2022-11-18T21:56:30.971Z,31.73
2022-11-18T21:58:59.170Z,26.23
2022-11-18T22:01:27.047Z,25.33
2022-11-18T22:03:55.876Z,28.83
2022-11-18T22:06:24.649Z,28.13
2022-11-18T22:08:52.140Z,30.40
2022-11-18T22:11:20.600Z,29.03
2022-11-18T22:13:47.393Z,23.97
2022-11-18T22:16:15.691Z,23.13
2022-11-18T22:18:43.832Z,30.27
2022-11-18T22:21:12.296Z,30.50
2022-11-18T22:23:39.313Z,27.43
2022-11-18T22:26:09.051Z,27.37
2022-11-18T22:28:36.313Z,26.70
2022-11-18T22:31:06.949Z,24.03
2022-11-18T22:33:34.033Z,20.47
2022-11-18T22:36:04.863Z,25.27
2022-11-18T22:38:31.936Z,22.83
2022-11-18T22:40:59.836Z,22.33
2022-11-18T22:43:26.639Z,27.03
2022-11-18T22:46:00.237Z,19.83
2022-11-18T22:48:27.066Z,23.43
2022-11-18T22:50:58.160Z,28.10
2022-11-18T22:53:25.007Z,23.33
2022-11-18T22:55:51.780Z,27.37
2022-11-18T22:58:18.737Z,26.27
2022-11-18T23:00:46.270Z,28.53
2022-11-18T23:03:13.172Z,22.60
2022-11-18T23:05:40.005Z,24.37
2022-11-18T23:08:06.866Z,20.67
2022-11-18T23:10:33.668Z,21.60
2022-11-18T23:13:18.910Z,19.50
2022-11-18T23:15:45.764Z,21.80
2022-11-18T23:18:12.560Z,19.77
2022-11-18T23:20:39.431Z,18.07
2022-11-18T23:23:06.180Z,18.03
2022-11-18T23:25:33.076Z,20.97
2022-11-18T23:27:59.850Z,17.60
2022-11-18T23:30:26.755Z,16.87
2022-11-18T23:32:55.064Z,19.53
2022-11-18T23:35:21.971Z,21.37
2022-11-18T23:37:49.159Z,17.93
2022-11-18T23:40:16.140Z,18.70
2022-11-18T23:42:42.892Z,16.93
2022-11-18T23:45:09.927Z,20.37
2022-11-18T23:47:37.100Z,18.57
2022-11-18T23:50:04.181Z,17.60
2022-11-18T23:52:30.951Z,15.47
2022-11-18T23:54:59.642Z,17.70
2022-11-18T23:57:26.468Z,18.83
2022-11-18T23:59:53.237Z,16.73
